Time;durP1;ratioP1;P1;durP2;ratioP2;P2;SDS_P1;SDS_P2;PMS_P1;PMS_P2;Temp;Humidity;BMP_temperature;BMP_pressure;BME280_temperature;BME280_humidity;BME280_pressure;Samples;Min_cycle;Max_cycle;Signal;HPM_P1;HPM_P2
2024/03/17 00:01:52;;;;;;;;;;;;;;;7.53;100.00;96371.47;10546447;27;2123;-66
2024/03/17 00:06:54;;;;;;;;;;;;;;;7.54;100.00;96370.41;10512224;28;2121;-65
2024/03/17 00:11:56;;;;;;;;;;;;;;;7.44;100.00;96374.75;10512672;28;2334;-70
2024/03/17 00:16:58;;;;;;;;;;;;;;;7.41;100.00;96372.56;10522522;27;2120;-65
2024/03/17 00:22:00;;;;;;;;;;;;;;;7.40;100.00;96347.69;10514295;28;2069;-71
2024/03/17 00:27:02;;;;;;;;;;;;;;;7.37;100.00;96369.56;10512357;28;2650;-66
2024/03/17 00:32:03;;;;;;;;;;;;;;;7.36;100.00;96369.78;10509065;28;2113;-67
2024/03/17 00:37:05;;;;;;;;;;;;;;;7.36;100.00;96370.59;10508132;28;2125;-66
2024/03/17 00:42:06;;;;;;;;;;;;;;;7.37;100.00;96372.22;10507790;28;2110;-67
2024/03/17 00:47:08;;;;;;;;;;;;;;;7.41;100.00;96360.00;10511497;28;2036;-64
2024/03/17 00:52:09;;;;;;;;;;;;;;;7.40;100.00;96346.88;10511725;28;2111;-66
2024/03/17 00:57:11;;;;;;;;;;;;;;;7.43;100.00;96365.13;10524396;27;2106;-68
2024/03/17 01:02:13;;;;;;;;;;;;;;;7.40;100.00;96361.06;10493816;28;2157;-65
2024/03/17 01:07:14;;;;;;;;;;;;;;;7.53;100.00;96350.06;10507845;28;2073;-64
2024/03/17 01:12:16;;;;;;;;;;;;;;;7.58;100.00;96357.38;10509358;28;2083;-67
2024/03/17 01:17:18;;;;;;;;;;;;;;;7.45;100.00;96350.47;10494003;28;2056;-65
2024/03/17 01:22:20;;;;;;;;;;;;;;;7.43;100.00;96355.22;10508506;28;2594;-66
2024/03/17 01:27:22;;;;;;;;;;;;;;;7.54;100.00;96353.56;10507298;28;2282;-65
2024/03/17 01:32:23;;;;;;;;;;;;;;;7.30;100.00;96336.78;10509872;28;2083;-66
2024/03/17 01:37:25;;;;;;;;;;;;;;;7.04;100.00;96340.84;10510383;28;2146;-65
2024/03/17 01:42:27;;;;;;;;;;;;;;;6.99;100.00;96328.19;10503523;28;2130;-67
2024/03/17 01:47:29;;;;;;;;;;;;;;;6.88;100.00;96331.72;10507861;28;2021;-70
2024/03/17 01:52:30;;;;;;;;;;;;;;;6.63;100.00;96325.84;10513214;28;2309;-66
2024/03/17 01:57:32;;;;;;;;;;;;;;;6.52;100.00;96332.00;10504631;28;2232;-66
2024/03/17 02:02:34;;;;;;;;;;;;;;;6.68;100.00;96336.63;10506355;28;2036;-66
2024/03/17 02:07:35;;;;;;;;;;;;;;;6.91;100.00;96335.75;10506557;28;2674;-69
2024/03/17 02:12:37;;;;;;;;;;;;;;;7.05;100.00;96327.22;10505362;28;2128;-70
2024/03/17 02:17:38;;;;;;;;;;;;;;;7.19;100.00;96318.94;10506794;28;2070;-66
2024/03/17 02:22:40;;;;;;;;;;;;;;;7.24;100.00;96319.03;10508808;28;2140;-65
2024/03/17 02:27:41;;;;;;;;;;;;;;;7.20;100.00;96324.06;10502078;28;2056;-64
2024/03/17 02:32:43;;;;;;;;;;;;;;;7.34;100.00;96311.22;10506957;28;2139;-67
2024/03/17 02:37:44;;;;;;;;;;;;;;;7.34;100.00;96303.19;10505713;28;1918;-69
2024/03/17 02:42:46;;;;;;;;;;;;;;;7.39;100.00;96297.94;10506052;28;2126;-67
2024/03/17 02:47:49;;;;;;;;;;;;;;;7.35;100.00;96287.94;10507545;28;1912;-67
2024/03/17 02:52:51;;;;;;;;;;;;;;;7.34;100.00;96275.63;10509457;28;2058;-64
2024/03/17 02:57:54;;;;;;;;;;;;;;;7.30;100.00;96267.25;10509618;28;2076;-64
2024/03/17 03:02:55;;;;;;;;;;;;;;;7.28;100.00;96261.34;10504426;28;2684;-65
2024/03/17 03:07:56;;;;;;;;;;;;;;;7.31;100.00;96267.00;10501288;28;2171;-65
2024/03/17 03:12:58;;;;;;;;;;;;;;;7.28;100.00;96269.38;10500837;28;2139;-65
2024/03/17 03:17:59;;;;;;;;;;;;;;;7.27;100.00;96265.09;10501736;28;2055;-65
2024/03/17 03:23:01;;;;;;;;;;;;;;;7.29;100.00;96260.28;10501050;28;2083;-65
2024/03/17 03:28:02;;;;;;;;;;;;;;;7.37;100.00;96249.19;10484992;28;2066;-66
2024/03/17 03:33:05;;;;;;;;;;;;;;;7.40;100.00;96251.41;10502580;28;2121;-65
2024/03/17 03:38:08;;;;;;;;;;;;;;;7.34;100.00;96255.03;10505283;28;2135;-66
2024/03/17 03:43:10;;;;;;;;;;;;;;;7.43;100.00;96248.22;10510352;28;2275;-66
2024/03/17 03:48:12;;;;;;;;;;;;;;;7.37;100.00;96249.19;10510361;28;2561;-65
2024/03/17 03:53:13;;;;;;;;;;;;;;;7.43;100.00;96253.59;10510165;28;2064;-67
2024/03/17 03:58:15;;;;;;;;;;;;;;;7.43;100.00;96253.59;10506001;28;2071;-67
2024/03/17 04:03:16;;;;;;;;;;;;;;;7.39;100.00;96262.34;10505415;28;2085;-66
2024/03/17 04:08:18;;;;;;;;;;;;;;;7.48;100.00;96253.69;10507554;28;2224;-66
2024/03/17 04:13:20;;;;;;;;;;;;;;;7.37;100.00;96254.53;10502672;28;2299;-67
2024/03/17 04:18:21;;;;;;;;;;;;;;;7.37;100.00;96257.22;10501725;28;2056;-66
2024/03/17 04:23:23;;;;;;;;;;;;;;;7.34;100.00;96255.03;10501133;28;2037;-67
2024/03/17 04:28:25;;;;;;;;;;;;;;;7.18;100.00;96259.28;10499425;28;2242;-70
2024/03/17 04:33:26;;;;;;;;;;;;;;;7.11;100.00;96266.66;10501866;28;2189;-70
2024/03/17 04:38:28;;;;;;;;;;;;;;;7.11;100.00;96260.50;10507948;28;6554;-72
2024/03/17 04:43:31;;;;;;;;;;;;;;;7.19;100.00;96262.78;10508609;28;2017;-74
2024/03/17 04:48:33;;;;;;;;;;;;;;;7.15;100.00;96258.97;10512695;28;2146;-71
2024/03/17 04:53:34;;;;;;;;;;;;;;;7.16;100.00;96264.09;10525088;28;2500;-66
2024/03/17 04:58:36;;;;;;;;;;;;;;;7.15;100.00;96262.47;10494313;28;2103;-70
2024/03/17 05:03:38;;;;;;;;;;;;;;;7.04;100.00;96264.13;10514133;28;2096;-64
2024/03/17 05:08:39;;;;;;;;;;;;;;;7.09;100.00;96262.59;10486520;28;2094;-64
2024/03/17 05:13:41;;;;;;;;;;;;;;;6.98;100.00;96266.94;10513542;28;2137;-65
2024/03/17 05:18:43;;;;;;;;;;;;;;;6.98;100.00;96267.75;10508679;28;2123;-63
2024/03/17 05:23:44;;;;;;;;;;;;;;;7.04;100.00;96272.16;10511238;28;2219;-68
2024/03/17 05:28:46;;;;;;;;;;;;;;;6.88;100.00;96269.44;10511660;28;2073;-64
2024/03/17 05:33:47;;;;;;;;;;;;;;;6.83;100.00;96275.50;10508291;28;2073;-66
2024/03/17 05:38:48;;;;;;;;;;;;;;;6.78;100.00;96283.41;10504463;28;2242;-65
2024/03/17 05:43:51;;;;;;;;;;;;;;;6.81;100.00;96298.13;10508278;28;2088;-68
2024/03/17 05:48:52;;;;;;;;;;;;;;;6.92;100.00;96298.09;10508635;28;2091;-65
2024/03/17 05:53:55;;;;;;;;;;;;;;;7.04;100.00;96298.06;10496164;28;2323;-65
2024/03/17 05:58:57;;;;;;;;;;;;;;;7.09;100.00;96294.69;10512437;28;2009;-65
2024/03/17 06:03:59;;;;;;;;;;;;;;;7.19;100.00;96284.16;10506480;28;2096;-66
2024/03/17 06:09:01;;;;;;;;;;;;;;;7.16;100.00;96284.66;10504243;28;2116;-65
2024/03/17 06:14:06;;;;;;;;;;;;;;;7.34;100.00;96276.44;10505867;28;2044;-69
2024/03/17 06:19:08;;;;;;;;;;;;;;;7.42;100.00;96273.38;10508288;28;2072;-68
2024/03/17 06:24:09;;;;;;;;;;;;;;;7.67;100.00;96269.50;10504013;28;2043;-64
2024/03/17 06:29:11;;;;;;;;;;;;;;;7.76;100.00;96266.19;10487863;28;2676;-65
2024/03/17 06:34:14;;;;;;;;;;;;;;;7.72;100.00;96261.56;10486230;28;2009;-66
2024/03/17 06:39:16;;;;;;;;;;;;;;;7.78;100.00;96260.59;10506365;28;2126;-65
2024/03/17 06:44:17;;;;;;;;;;;;;;;8.00;100.00;96268.66;10507466;28;2134;-65
2024/03/17 06:49:20;;;;;;;;;;;;;;;8.16;100.00;96269.72;10507212;28;2437;-65
2024/03/17 06:54:22;;;;;;;;;;;;;;;8.51;100.00;96267.53;10520991;27;2129;-66
2024/03/17 06:59:23;;;;;;;;;;;;;;;8.68;100.00;96256.78;10503778;28;2157;-67
2024/03/17 07:04:25;;;;;;;;;;;;;;;8.77;100.00;96259.81;10504418;28;1997;-66
2024/03/17 07:09:26;;;;;;;;;;;;;;;8.99;100.00;96257.94;10509331;28;1989;-65
2024/03/17 07:14:28;;;;;;;;;;;;;;;9.15;100.00;96261.59;10504035;28;2543;-65
2024/03/17 07:19:30;;;;;;;;;;;;;;;9.23;100.00;96257.69;10501799;28;2116;-65
2024/03/17 07:24:33;;;;;;;;;;;;;;;9.39;100.00;96249.50;10508659;28;2429;-64
2024/03/17 07:29:36;;;;;;;;;;;;;;;9.65;100.00;96253.22;10503063;28;2069;-64
2024/03/17 07:34:37;;;;;;;;;;;;;;;9.46;100.00;96260.03;10504207;28;2042;-65
2024/03/17 07:39:39;;;;;;;;;;;;;;;9.29;100.00;96253.94;10504466;28;2114;-65
2024/03/17 07:44:40;;;;;;;;;;;;;;;9.52;100.00;96250.16;10487911;28;2099;-66
2024/03/17 07:49:42;;;;;;;;;;;;;;;9.81;100.00;96246.13;10501837;28;2108;-65
2024/03/17 07:54:44;;;;;;;;;;;;;;;10.44;100.00;96247.09;10508135;28;2128;-68
2024/03/17 07:59:46;;;;;;;;;;;;;;;10.91;100.00;96237.34;10485418;28;2036;-65
2024/03/17 08:04:47;;;;;;;;;;;;;;;10.51;100.00;96228.03;10501889;28;2425;-66
2024/03/17 08:09:49;;;;;;;;;;;;;;;10.81;100.00;96217.41;10505585;28;2349;-66
2024/03/17 08:14:51;;;;;;;;;;;;;;;11.16;100.00;96229.34;10549030;27;2025;-64
2024/03/17 08:19:53;;;;;;;;;;;;;;;11.69;100.00;96219.16;10495803;28;2484;-68
2024/03/17 08:24:55;;;;;;;;;;;;;;;11.48;100.00;96215.66;10509913;28;2180;-66
2024/03/17 08:29:56;;;;;;;;;;;;;;;11.92;100.00;96209.75;10510235;28;2131;-66
2024/03/17 08:34:58;;;;;;;;;;;;;;;12.62;100.00;96207.97;10513230;28;2226;-64
2024/03/17 08:39:59;;;;;;;;;;;;;;;12.83;100.00;96208.69;10511481;28;2379;-73
2024/03/17 08:45:02;;;;;;;;;;;;;;;13.06;100.00;96198.31;10504869;28;2064;-73
2024/03/17 08:50:04;;;;;;;;;;;;;;;12.87;100.00;96193.56;10495795;28;2130;-71
2024/03/17 08:55:13;;;;;;;;;;;;;;;12.91;100.00;96193.78;10515192;28;2048;-72
2024/03/17 09:00:15;;;;;;;;;;;;;;;13.30;100.00;96183.09;10512936;28;2677;-70
2024/03/17 09:05:16;;;;;;;;;;;;;;;13.26;100.00;96179.34;10512128;28;2088;-67
2024/03/17 09:10:18;;;;;;;;;;;;;;;12.65;100.00;96179.63;10515396;28;2096;-68
2024/03/17 09:15:20;;;;;;;;;;;;;;;12.54;100.00;96164.59;10510312;28;2143;-66
2024/03/17 09:20:21;;;;;;;;;;;;;;;12.14;100.00;96164.44;10507305;28;2079;-66
2024/03/17 09:25:23;;;;;;;;;;;;;;;12.00;100.00;96162.59;10510205;28;2029;-65
2024/03/17 09:30:24;;;;;;;;;;;;;;;11.86;100.00;96163.16;10505643;28;2131;-63
2024/03/17 09:35:26;;;;;;;;;;;;;;;12.31;100.00;96172.22;10504292;28;2145;-69
2024/03/17 09:40:27;;;;;;;;;;;;;;;12.34;100.00;96160.91;10509464;28;2017;-66
2024/03/17 09:45:29;;;;;;;;;;;;;;;12.28;100.00;96167.38;10505894;28;2091;-67
2024/03/17 09:50:31;;;;;;;;;;;;;;;12.37;100.00;96154.13;10510856;28;2025;-66
2024/03/17 09:55:33;;;;;;;;;;;;;;;12.86;100.00;96146.09;10508383;28;2245;-66
2024/03/17 10:00:34;;;;;;;;;;;;;;;13.22;100.00;96148.56;10505725;28;2284;-67
2024/03/17 10:05:37;;;;;;;;;;;;;;;13.35;100.00;96137.13;10505975;28;2076;-66
2024/03/17 10:10:38;;;;;;;;;;;;;;;13.49;100.00;96140.81;10506837;28;2134;-66
2024/03/17 10:15:40;;;;;;;;;;;;;;;13.71;100.00;96142.25;10527269;28;1925;-66
2024/03/17 10:20:41;;;;;;;;;;;;;;;13.83;100.00;96133.75;10519781;28;2046;-66
2024/03/17 10:25:44;;;;;;;;;;;;;;;14.66;100.00;96140.69;10516806;28;1831;-72
2024/03/17 10:30:46;;;;;;;;;;;;;;;14.43;100.00;96132.28;10518095;28;1954;-66
2024/03/17 10:35:47;;;;;;;;;;;;;;;14.70;100.00;96117.38;10523631;28;1946;-70
2024/03/17 10:40:49;;;;;;;;;;;;;;;14.35;100.00;96130.22;10523759;28;2727;-75
2024/03/17 10:45:50;;;;;;;;;;;;;;;14.04;100.00;96118.94;10522707;28;1841;-71
2024/03/17 10:50:52;;;;;;;;;;;;;;;14.17;100.00;96122.84;10522749;28;1928;-73
2024/03/17 10:55:55;;;;;;;;;;;;;;;14.44;100.00;96109.56;10514205;28;2042;-72
2024/03/17 11:00:56;;;;;;;;;;;;;;;14.92;100.00;96111.38;10517509;28;1975;-72
2024/03/17 11:05:58;;;;;;;;;;;;;;;15.25;100.00;96094.09;10516666;28;1644;-74
2024/03/17 11:11:00;;;;;;;;;;;;;;;15.49;100.00;96093.97;10521720;28;1878;-75
2024/03/17 11:16:04;;;;;;;;;;;;;;;16.04;97.73;96079.75;10518559;28;1829;-72
2024/03/17 11:21:10;;;;;;;;;;;;;;;15.78;100.00;96079.44;10521171;28;1910;-71
2024/03/17 11:26:12;;;;;;;;;;;;;;;15.66;100.00;96067.16;10522757;28;2959;-73
2024/03/17 11:31:13;;;;;;;;;;;;;;;16.08;97.17;96073.41;10513846;28;1858;-69
2024/03/17 11:36:15;;;;;;;;;;;;;;;15.87;89.18;96072.19;10503050;28;1867;-67
2024/03/17 11:41:17;;;;;;;;;;;;;;;16.04;86.95;96066.19;10522152;28;1970;-69
2024/03/17 11:46:18;;;;;;;;;;;;;;;15.82;92.83;96069.56;10519897;28;2000;-70
2024/03/17 11:51:20;;;;;;;;;;;;;;;15.49;97.96;96072.31;10525590;28;1823;-66
2024/03/17 11:56:22;;;;;;;;;;;;;;;15.21;97.71;96065.22;10535181;28;1656;-67
2024/03/17 12:01:24;;;;;;;;;;;;;;;14.80;98.50;96076.63;10520970;28;1968;-66
2024/03/17 12:06:27;;;;;;;;;;;;;;;14.49;100.00;96062.72;10524874;28;2691;-67
2024/03/17 12:11:28;;;;;;;;;;;;;;;14.33;100.00;96070.22;10524668;28;1837;-68
2024/03/17 12:16:30;;;;;;;;;;;;;;;14.56;100.00;96061.28;10520840;28;2819;-66
2024/03/17 12:21:31;;;;;;;;;;;;;;;14.54;100.00;96054.56;10507709;28;2751;-65
2024/03/17 12:26:35;;;;;;;;;;;;;;;14.27;100.00;96039.72;10490334;28;2854;-66
2024/03/17 12:31:36;;;;;;;;;;;;;;;14.00;100.00;96031.44;10504073;28;2733;-66
2024/03/17 12:36:38;;;;;;;;;;;;;;;13.68;100.00;96032.06;10512261;28;2837;-66
2024/03/17 12:41:39;;;;;;;;;;;;;;;14.27;100.00;96022.72;10522422;28;1906;-65
2024/03/17 12:46:41;;;;;;;;;;;;;;;14.30;100.00;96024.81;10525632;28;1934;-70
2024/03/17 12:51:42;;;;;;;;;;;;;;;14.54;100.00;96025.59;10545924;27;1896;-65
2024/03/17 13:02:03;;;;;;;;;;;;;;;15.23;100.00;96014.25;10522183;28;2238;-66
2024/03/17 13:07:05;;;;;;;;;;;;;;;15.68;100.00;96004.53;10524216;28;1952;-66
2024/03/17 13:12:06;;;;;;;;;;;;;;;15.19;100.00;96002.41;10515778;28;2231;-65
2024/03/17 13:17:08;;;;;;;;;;;;;;;15.28;100.00;96008.75;10503704;28;1894;-68
2024/03/17 13:22:09;;;;;;;;;;;;;;;15.56;100.00;96006.88;10523152;28;1909;-65
2024/03/17 13:27:11;;;;;;;;;;;;;;;15.35;100.00;96006.47;10518814;28;2012;-67
2024/03/17 13:32:12;;;;;;;;;;;;;;;14.89;100.00;96009.94;10524264;28;1973;-71
2024/03/17 13:37:14;;;;;;;;;;;;;;;15.03;100.00;96002.66;10510771;28;1601;-67
2024/03/17 13:42:16;;;;;;;;;;;;;;;15.66;100.00;96002.13;10523507;28;1963;-66
2024/03/17 13:47:18;;;;;;;;;;;;;;;15.45;100.00;96000.84;10524198;28;1847;-64
2024/03/17 13:52:20;;;;;;;;;;;;;;;15.13;100.00;95988.94;10522052;28;1819;-66
2024/03/17 13:57:21;;;;;;;;;;;;;;;14.73;100.00;95995.03;10527084;28;2100;-66
2024/03/17 14:02:23;;;;;;;;;;;;;;;14.34;100.00;95991.50;10518337;28;2377;-67
2024/03/17 14:07:26;;;;;;;;;;;;;;;14.72;100.00;95988.00;10524203;28;1849;-66
2024/03/17 14:12:28;;;;;;;;;;;;;;;15.01;100.00;95972.34;10521347;28;1779;-69
2024/03/17 14:17:30;;;;;;;;;;;;;;;14.77;100.00;95971.69;10522171;28;1909;-67
2024/03/17 14:22:31;;;;;;;;;;;;;;;14.85;100.00;95971.81;10518557;28;1965;-78
2024/03/17 14:27:34;;;;;;;;;;;;;;;14.63;100.00;95970.81;10510699;28;1683;-77
2024/03/17 14:32:35;;;;;;;;;;;;;;;14.80;100.00;95968.41;10522212;28;2329;-76
2024/03/17 14:37:37;;;;;;;;;;;;;;;14.54;100.00;95973.41;10526621;28;2022;-78
2024/03/17 14:42:39;;;;;;;;;;;;;;;14.53;100.00;95963.69;10521962;28;1902;-65
2024/03/17 14:47:40;;;;;;;;;;;;;;;14.44;100.00;95965.41;10518353;28;1870;-66
2024/03/17 14:52:42;;;;;;;;;;;;;;;14.53;100.00;95958.28;10516942;28;1849;-68
2024/03/17 14:57:44;;;;;;;;;;;;;;;14.20;100.00;95955.47;10512253;28;3006;-66
2024/03/17 15:02:46;;;;;;;;;;;;;;;13.99;100.00;95954.94;10514326;28;1988;-66
2024/03/17 15:07:48;;;;;;;;;;;;;;;13.91;100.00;95947.47;10515776;28;1889;-67
2024/03/17 15:12:49;;;;;;;;;;;;;;;13.90;100.00;95945.88;10528965;28;1858;-66
2024/03/17 15:17:51;;;;;;;;;;;;;;;13.99;100.00;95949.53;10525027;28;1652;-67
2024/03/17 15:22:54;;;;;;;;;;;;;;;13.74;100.00;95936.34;10513229;28;1918;-66
2024/03/17 15:27:56;;;;;;;;;;;;;;;13.73;100.00;95940.13;10517800;28;1846;-68
2024/03/17 15:32:58;;;;;;;;;;;;;;;13.61;100.00;95937.84;10516045;28;1835;-66
2024/03/17 15:38:00;;;;;;;;;;;;;;;13.43;100.00;95931.31;10521417;28;1857;-66
2024/03/17 15:43:02;;;;;;;;;;;;;;;13.47;100.00;95932.34;10554473;27;1938;-69
2024/03/17 15:48:03;;;;;;;;;;;;;;;13.34;100.00;95932.22;10514995;28;1830;-72
2024/03/17 15:53:04;;;;;;;;;;;;;;;13.18;100.00;95931.56;10523193;28;1608;-65
2024/03/17 15:58:06;;;;;;;;;;;;;;;13.29;100.00;95940.38;10513932;28;1917;-66
2024/03/17 16:03:08;;;;;;;;;;;;;;;13.40;100.00;95929.19;10516301;28;1914;-66
2024/03/17 16:08:10;;;;;;;;;;;;;;;13.32;100.00;95924.44;10520089;28;2056;-66
2024/03/17 16:13:12;;;;;;;;;;;;;;;13.13;100.00;95931.63;10515750;28;1930;-66
2024/03/17 16:18:14;;;;;;;;;;;;;;;13.03;100.00;95937.09;10518055;28;1892;-67
2024/03/17 16:23:16;;;;;;;;;;;;;;;12.83;100.00;95930.81;10519082;28;1977;-66
2024/03/17 16:28:20;;;;;;;;;;;;;;;12.61;100.00;95933.97;10519430;28;1898;-66
2024/03/17 16:33:22;;;;;;;;;;;;;;;12.67;100.00;95938.25;10525270;28;1940;-66
2024/03/17 16:38:23;;;;;;;;;;;;;;;12.55;100.00;95931.59;10505028;28;1897;-66
2024/03/17 16:43:25;;;;;;;;;;;;;;;12.44;100.00;95936.25;10507440;28;2929;-67
2024/03/17 16:48:26;;;;;;;;;;;;;;;12.46;100.00;95944.88;10526869;28;1902;-65
2024/03/17 16:53:28;;;;;;;;;;;;;;;12.35;100.00;95946.84;10505565;28;1893;-67
2024/03/17 16:58:30;;;;;;;;;;;;;;;12.15;100.00;95944.25;10520451;28;1830;-66
2024/03/17 17:03:33;;;;;;;;;;;;;;;11.83;100.00;95956.31;10507936;28;2077;-66
2024/03/17 17:08:35;;;;;;;;;;;;;;;11.81;100.00;95954.97;10518832;28;1854;-65
2024/03/17 17:13:36;;;;;;;;;;;;;;;11.73;100.00;95959.00;10528356;28;1865;-67
2024/03/17 17:18:38;;;;;;;;;;;;;;;11.72;100.00;95957.41;10521185;28;1877;-66
2024/03/17 17:23:40;;;;;;;;;;;;;;;11.54;100.00;95945.34;10516777;28;2996;-66
2024/03/17 17:28:41;;;;;;;;;;;;;;;11.41;100.00;95950.53;10520873;28;2001;-66
2024/03/17 17:33:44;;;;;;;;;;;;;;;11.28;100.00;95958.09;10528063;28;1730;-67
2024/03/17 17:38:45;;;;;;;;;;;;;;;11.12;100.00;95951.13;10520029;28;1945;-68
2024/03/17 17:43:47;;;;;;;;;;;;;;;11.05;100.00;95955.97;10514000;28;1945;-69
2024/03/17 17:48:48;;;;;;;;;;;;;;;10.94;100.00;95957.91;10524133;28;1753;-72
2024/03/17 17:53:50;;;;;;;;;;;;;;;10.89;100.00;95949.84;10522038;28;2064;-74
2024/03/17 17:58:52;;;;;;;;;;;;;;;10.82;100.00;95949.31;10516248;28;1929;-66
2024/03/17 18:03:56;;;;;;;;;;;;;;;10.74;100.00;95955.22;10517009;28;1907;-66
2024/03/17 18:08:58;;;;;;;;;;;;;;;10.70;100.00;95957.66;10511336;28;2776;-66
2024/03/17 18:13:59;;;;;;;;;;;;;;;10.78;100.00;95959.78;10515308;28;1888;-68
2024/03/17 18:19:01;;;;;;;;;;;;;;;10.71;100.00;95947.69;10508513;28;1902;-65
2024/03/17 18:24:04;;;;;;;;;;;;;;;10.59;100.00;95949.84;10523190;28;1976;-71
2024/03/17 18:29:05;;;;;;;;;;;;;;;10.52;100.00;95944.75;10513118;28;1925;-66
2024/03/17 18:34:07;;;;;;;;;;;;;;;10.49;100.00;95956.81;10521043;28;1898;-71
2024/03/17 18:39:09;;;;;;;;;;;;;;;10.44;100.00;95947.97;10552179;27;1634;-69
2024/03/17 18:44:10;;;;;;;;;;;;;;;10.44;100.00;95953.34;10519247;28;1917;-67
2024/03/17 18:49:12;;;;;;;;;;;;;;;10.38;100.00;95951.72;10507443;28;2827;-68
2024/03/17 18:54:14;;;;;;;;;;;;;;;10.26;100.00;95960.84;10497769;28;2985;-67
2024/03/17 18:59:18;;;;;;;;;;;;;;;10.17;100.00;95950.84;10498466;28;2909;-65
2024/03/17 19:04:20;;;;;;;;;;;;;;;10.08;100.00;95937.16;10496114;28;2613;-67
2024/03/17 19:09:22;;;;;;;;;;;;;;;9.95;100.00;95943.03;10476880;28;2822;-66
2024/03/17 19:14:23;;;;;;;;;;;;;;;9.90;100.00;95953.75;10496110;28;2795;-65
2024/03/17 19:19:25;;;;;;;;;;;;;;;9.98;100.00;95947.84;10479070;28;2870;-66
2024/03/17 19:24:27;;;;;;;;;;;;;;;10.11;100.00;95941.97;10500386;28;2948;-68
2024/03/17 19:29:28;;;;;;;;;;;;;;;10.20;100.00;95943.06;10494786;28;2742;-66
2024/03/17 19:34:30;;;;;;;;;;;;;;;10.20;100.00;95936.91;10493870;28;2844;-66
2024/03/17 19:39:32;;;;;;;;;;;;;;;10.19;100.00;95929.91;10492200;28;2837;-65
2024/03/17 19:44:33;;;;;;;;;;;;;;;10.24;100.00;95927.25;10474458;28;2772;-65
2024/03/17 19:49:35;;;;;;;;;;;;;;;10.29;100.00;95925.38;10498154;28;2949;-65
2024/03/17 19:54:37;;;;;;;;;;;;;;;10.19;100.00;95929.91;10494213;28;2829;-66
2024/03/17 19:59:39;;;;;;;;;;;;;;;10.24;100.00;95938.00;10526369;27;2871;-68
2024/03/17 20:04:42;;;;;;;;;;;;;;;10.31;100.00;95929.66;10493549;28;2817;-65
2024/03/17 20:09:43;;;;;;;;;;;;;;;10.28;100.00;95937.19;10503520;28;3125;-66
2024/03/17 20:14:45;;;;;;;;;;;;;;;10.32;100.00;95934.00;10501698;28;2904;-66
2024/03/17 20:19:48;;;;;;;;;;;;;;;10.30;100.00;95926.16;10497377;28;2757;-65
2024/03/17 20:24:50;;;;;;;;;;;;;;;10.27;100.00;95930.22;10498816;28;2892;-65
2024/03/17 20:29:52;;;;;;;;;;;;;;;10.17;100.00;95929.34;10488483;28;2796;-66
2024/03/17 20:34:55;;;;;;;;;;;;;;;10.07;100.00;95924.78;10498282;28;2777;-65
2024/03/17 20:39:57;;;;;;;;;;;;;;;9.97;100.00;95922.88;10500254;28;2856;-66
2024/03/17 20:44:59;;;;;;;;;;;;;;;9.98;100.00;95913.75;10499896;28;2899;-68
2024/03/17 20:50:01;;;;;;;;;;;;;;;9.91;100.00;95912.41;10502315;28;2825;-66
2024/03/17 20:55:03;;;;;;;;;;;;;;;9.96;100.00;95913.22;10505760;28;2766;-70
2024/03/17 21:00:17;;;;;;;;;;;;;;;9.92;100.00;95897.88;10500880;28;2887;-66
2024/03/17 21:05:18;;;;;;;;;;;;;;;9.95;100.00;95894.69;10498556;28;2813;-67
2024/03/17 21:10:20;;;;;;;;;;;;;;;9.97;100.00;95887.16;10506763;28;2879;-66
2024/03/17 21:15:25;;;;;;;;;;;;;;;9.95;100.00;95894.69;10500638;28;2853;-66
2024/03/17 21:20:31;;;;;;;;;;;;;;;10.06;100.00;95890.16;10499819;28;2873;-65
2024/03/17 21:25:32;;;;;;;;;;;;;;;10.05;100.00;95885.81;10500675;28;2816;-65
2024/03/17 21:30:34;;;;;;;;;;;;;;;10.08;100.00;95875.38;10497113;28;2925;-66
2024/03/17 21:35:36;;;;;;;;;;;;;;;10.08;100.00;95870.00;10499539;28;2851;-70
2024/03/17 21:40:37;;;;;;;;;;;;;;;10.12;100.00;95863.03;10502930;28;2877;-66
2024/03/17 21:45:39;;;;;;;;;;;;;;;10.18;100.00;95858.44;10501132;28;2758;-65
2024/03/17 21:50:41;;;;;;;;;;;;;;;10.16;100.00;95853.34;10499717;28;3015;-70
2024/03/17 21:55:42;;;;;;;;;;;;;;;10.18;100.00;95851.22;10501557;28;2797;-72
2024/03/17 22:00:44;;;;;;;;;;;;;;;10.15;100.00;95849.03;10541601;27;2584;-70
2024/03/17 22:05:45;;;;;;;;;;;;;;;10.15;100.00;95851.72;10500344;28;2868;-66
2024/03/17 22:10:47;;;;;;;;;;;;;;;10.23;100.00;95845.84;10498851;28;2728;-67
2024/03/17 22:15:48;;;;;;;;;;;;;;;10.17;100.00;95841.50;10484570;28;2841;-67
2024/03/17 22:20:50;;;;;;;;;;;;;;;10.11;100.00;95847.97;10504364;28;2889;-67
2024/03/17 22:25:51;;;;;;;;;;;;;;;10.11;100.00;95845.28;10497259;28;3339;-67
2024/03/17 22:30:53;;;;;;;;;;;;;;;10.08;100.00;95843.13;10503272;28;2864;-68
2024/03/17 22:35:55;;;;;;;;;;;;;;;10.16;100.00;95833.72;10495564;28;2840;-71
2024/03/17 22:40:56;;;;;;;;;;;;;;;10.13;100.00;95832.41;10496694;28;2997;-68
2024/03/17 22:45:58;;;;;;;;;;;;;;;10.17;100.00;95830.78;10493153;28;2982;-67
2024/03/17 22:50:59;;;;;;;;;;;;;;;10.14;100.00;95825.16;10495923;28;3039;-66
2024/03/17 22:56:01;;;;;;;;;;;;;;;10.13;100.00;95818.16;10495439;28;2885;-66
2024/03/17 23:01:04;;;;;;;;;;;;;;;10.13;100.00;95818.97;10491798;28;2856;-65
2024/03/17 23:06:05;;;;;;;;;;;;;;;10.12;100.00;95817.38;10495442;28;2769;-67
2024/03/17 23:11:12;;;;;;;;;;;;;;;10.05;100.00;95811.44;10493944;28;2644;-65
2024/03/17 23:16:16;;;;;;;;;;;;;;;10.11;100.00;95807.66;10499324;28;2835;-65
2024/03/17 23:21:18;;;;;;;;;;;;;;;10.03;100.00;95808.22;10508626;28;2618;-69
2024/03/17 23:26:20;;;;;;;;;;;;;;;10.00;100.00;95800.72;10496054;28;2885;-67
2024/03/17 23:31:21;;;;;;;;;;;;;;;10.05;100.00;95795.31;10493941;28;2852;-65
2024/03/17 23:36:23;;;;;;;;;;;;;;;10.10;100.00;95781.88;10484492;28;2897;-69
2024/03/17 23:41:25;;;;;;;;;;;;;;;10.13;100.00;95785.94;10477430;28;2656;-66
2024/03/17 23:46:28;;;;;;;;;;;;;;;10.12;100.00;95779.75;10493325;28;2805;-65
2024/03/17 23:51:30;;;;;;;;;;;;;;;10.09;100.00;95771.41;10493620;28;3002;-67
2024/03/17 23:56:32;;;;;;;;;;;;;;;10.09;100.00;95758.78;10499227;28;2796;-66
